sensor_id;sensor_type;location;lat;lon;timestamp;temperature;humidity
38237;DHT22;50101;49.438;11.098;2023-11-22T00:02:17;19.40;62.10
38237;DHT22;50101;49.438;11.098;2023-11-22T00:04:44;19.30;62.00
38237;DHT22;50101;49.438;11.098;2023-11-22T00:07:11;19.30;62.00
38237;DHT22;50101;49.438;11.098;2023-11-22T00:09:38;19.40;62.10
38237;DHT22;50101;49.438;11.098;2023-11-22T00:12:05;19.30;62.00
38237;DHT22;50101;49.438;11.098;2023-11-22T00:14:32;19.30;61.90
38237;DHT22;50101;49.438;11.098;2023-11-22T00:17:00;19.40;62.00
38237;DHT22;50101;49.438;11.098;2023-11-22T00:19:28;19.30;61.90
38237;DHT22;50101;49.438;11.098;2023-11-22T00:21:55;19.30;61.80
38237;DHT22;50101;49.438;11.098;2023-11-22T00:24:22;19.30;61.90
38237;DHT22;50101;49.438;11.098;2023-11-22T00:26:49;19.30;61.90
38237;DHT22;50101;49.438;11.098;2023-11-22T00:29:15;19.30;61.90
38237;DHT22;50101;49.438;11.098;2023-11-22T00:31:42;19.30;61.90
38237;DHT22;50101;49.438;11.098;2023-11-22T00:34:11;19.30;61.90
38237;DHT22;50101;49.438;11.098;2023-11-22T00:36:37;19.30;61.80
38237;DHT22;50101;49.438;11.098;2023-11-22T00:39:04;19.30;61.80
38237;DHT22;50101;49.438;11.098;2023-11-22T00:41:31;19.30;61.80
38237;DHT22;50101;49.438;11.098;2023-11-22T00:43:58;19.30;61.80
38237;DHT22;50101;49.438;11.098;2023-11-22T00:46:25;19.30;61.80
38237;DHT22;50101;49.438;11.098;2023-11-22T00:48:52;19.30;61.80
38237;DHT22;50101;49.438;11.098;2023-11-22T00:51:18;19.30;61.80
38237;DHT22;50101;49.438;11.098;2023-11-22T00:53:46;19.30;61.80
38237;DHT22;50101;49.438;11.098;2023-11-22T00:56:13;19.30;61.90
38237;DHT22;50101;49.438;11.098;2023-11-22T00:58:40;19.30;61.80
38237;DHT22;50101;49.438;11.098;2023-11-22T01:01:07;19.30;61.80
38237;DHT22;50101;49.438;11.098;2023-11-22T01:03:36;19.20;62.00
38237;DHT22;50101;49.438;11.098;2023-11-22T01:06:03;19.30;62.10
38237;DHT22;50101;49.438;11.098;2023-11-22T01:08:29;19.30;62.00
38237;DHT22;50101;49.438;11.098;2023-11-22T01:10:56;19.20;61.90
38237;DHT22;50101;49.438;11.098;2023-11-22T01:13:24;19.30;61.90
38237;DHT22;50101;49.438;11.098;2023-11-22T01:15:51;19.30;61.90
38237;DHT22;50101;49.438;11.098;2023-11-22T01:18:18;19.20;61.80
38237;DHT22;50101;49.438;11.098;2023-11-22T01:20:45;19.20;61.80
38237;DHT22;50101;49.438;11.098;2023-11-22T01:23:12;19.20;61.80
38237;DHT22;50101;49.438;11.098;2023-11-22T01:25:39;19.20;61.80
38237;DHT22;50101;49.438;11.098;2023-11-22T01:28:06;19.20;61.70
38237;DHT22;50101;49.438;11.098;2023-11-22T01:30:33;19.20;61.70
38237;DHT22;50101;49.438;11.098;2023-11-22T01:33:00;19.20;61.70
38237;DHT22;50101;49.438;11.098;2023-11-22T01:35:27;19.20;61.70
38237;DHT22;50101;49.438;11.098;2023-11-22T01:37:53;19.20;61.60
38237;DHT22;50101;49.438;11.098;2023-11-22T01:40:20;19.20;61.60
38237;DHT22;50101;49.438;11.098;2023-11-22T01:42:49;19.20;61.60
38237;DHT22;50101;49.438;11.098;2023-11-22T01:45:15;19.20;61.70
38237;DHT22;50101;49.438;11.098;2023-11-22T01:47:42;19.20;61.60
38237;DHT22;50101;49.438;11.098;2023-11-22T01:50:10;19.20;61.60
38237;DHT22;50101;49.438;11.098;2023-11-22T01:52:38;19.20;61.50
38237;DHT22;50101;49.438;11.098;2023-11-22T01:55:06;19.20;61.50
38237;DHT22;50101;49.438;11.098;2023-11-22T01:57:33;19.20;61.50
38237;DHT22;50101;49.438;11.098;2023-11-22T02:00:04;19.20;61.50
38237;DHT22;50101;49.438;11.098;2023-11-22T02:02:34;19.20;61.50
38237;DHT22;50101;49.438;11.098;2023-11-22T02:05:01;19.20;61.50
38237;DHT22;50101;49.438;11.098;2023-11-22T02:07:27;19.20;61.50
38237;DHT22;50101;49.438;11.098;2023-11-22T02:09:54;19.20;61.50
38237;DHT22;50101;49.438;11.098;2023-11-22T02:12:21;19.20;60.80
38237;DHT22;50101;49.438;11.098;2023-11-22T02:14:47;19.10;61.30
38237;DHT22;50101;49.438;11.098;2023-11-22T02:17:15;19.20;61.50
38237;DHT22;50101;49.438;11.098;2023-11-22T02:19:43;19.10;61.40
38237;DHT22;50101;49.438;11.098;2023-11-22T02:22:10;19.10;61.30
38237;DHT22;50101;49.438;11.098;2023-11-22T02:24:37;19.20;61.50
38237;DHT22;50101;49.438;11.098;2023-11-22T02:27:05;19.10;61.30
38237;DHT22;50101;49.438;11.098;2023-11-22T02:29:32;19.10;61.20
38237;DHT22;50101;49.438;11.098;2023-11-22T02:31:59;19.10;61.10
38237;DHT22;50101;49.438;11.098;2023-11-22T02:34:26;19.10;61.10
38237;DHT22;50101;49.438;11.098;2023-11-22T02:36:53;19.10;61.10
38237;DHT22;50101;49.438;11.098;2023-11-22T02:39:47;19.10;61.10
38237;DHT22;50101;49.438;11.098;2023-11-22T02:42:17;19.10;62.50
38237;DHT22;50101;49.438;11.098;2023-11-22T02:44:44;19.10;62.20
38237;DHT22;50101;49.438;11.098;2023-11-22T02:47:10;19.10;62.10
38237;DHT22;50101;49.438;11.098;2023-11-22T02:49:37;19.10;62.10
38237;DHT22;50101;49.438;11.098;2023-11-22T02:52:04;19.10;61.90
38237;DHT22;50101;49.438;11.098;2023-11-22T02:54:32;19.10;61.80
38237;DHT22;50101;49.438;11.098;2023-11-22T02:56:59;19.10;61.80
38237;DHT22;50101;49.438;11.098;2023-11-22T02:59:27;19.10;61.70
38237;DHT22;50101;49.438;11.098;2023-11-22T03:01:53;19.10;61.60
38237;DHT22;50101;49.438;11.098;2023-11-22T03:04:20;19.10;61.60
38237;DHT22;50101;49.438;11.098;2023-11-22T03:06:47;19.00;61.40
38237;DHT22;50101;49.438;11.098;2023-11-22T03:09:14;19.10;61.50
38237;DHT22;50101;49.438;11.098;2023-11-22T03:11:41;19.00;61.40
38237;DHT22;50101;49.438;11.098;2023-11-22T03:14:08;19.00;61.40
38237;DHT22;50101;49.438;11.098;2023-11-22T03:16:39;19.00;61.40
38237;DHT22;50101;49.438;11.098;2023-11-22T03:19:05;19.00;61.40
38237;DHT22;50101;49.438;11.098;2023-11-22T03:21:33;19.00;61.30
38237;DHT22;50101;49.438;11.098;2023-11-22T03:24:02;19.00;61.20
38237;DHT22;50101;49.438;11.098;2023-11-22T03:26:30;19.00;61.20
38237;DHT22;50101;49.438;11.098;2023-11-22T03:28:57;19.00;61.20
38237;DHT22;50101;49.438;11.098;2023-11-22T03:31:24;19.00;61.20
38237;DHT22;50101;49.438;11.098;2023-11-22T03:33:50;19.00;61.10
38237;DHT22;50101;49.438;11.098;2023-11-22T03:36:17;19.00;61.10
38237;DHT22;50101;49.438;11.098;2023-11-22T03:38:44;19.00;61.20
38237;DHT22;50101;49.438;11.098;2023-11-22T03:41:11;19.00;61.10
38237;DHT22;50101;49.438;11.098;2023-11-22T03:43:38;19.00;61.00
38237;DHT22;50101;49.438;11.098;2023-11-22T03:46:04;19.00;61.00
38237;DHT22;50101;49.438;11.098;2023-11-22T03:48:31;19.00;61.00
38237;DHT22;50101;49.438;11.098;2023-11-22T03:50:58;19.00;61.00
38237;DHT22;50101;49.438;11.098;2023-11-22T03:53:25;19.00;60.90
38237;DHT22;50101;49.438;11.098;2023-11-22T03:55:52;19.00;60.90
38237;DHT22;50101;49.438;11.098;2023-11-22T03:58:19;19.00;60.90
38237;DHT22;50101;49.438;11.098;2023-11-22T04:00:46;19.00;61.00
38237;DHT22;50101;49.438;11.098;2023-11-22T04:03:13;19.00;61.00
38237;DHT22;50101;49.438;11.098;2023-11-22T04:05:40;19.00;60.90
38237;DHT22;50101;49.438;11.098;2023-11-22T04:08:07;19.00;60.90
38237;DHT22;50101;49.438;11.098;2023-11-22T04:10:35;19.00;60.30
38237;DHT22;50101;49.438;11.098;2023-11-22T04:13:02;19.00;61.00
38237;DHT22;50101;49.438;11.098;2023-11-22T04:15:29;19.00;61.00
38237;DHT22;50101;49.438;11.098;2023-11-22T04:17:56;19.00;61.00
38237;DHT22;50101;49.438;11.098;2023-11-22T04:20:26;19.00;60.90
38237;DHT22;50101;49.438;11.098;2023-11-22T04:22:53;19.00;61.00
38237;DHT22;50101;49.438;11.098;2023-11-22T04:25:20;18.90;60.90
38237;DHT22;50101;49.438;11.098;2023-11-22T04:27:46;18.90;60.90
38237;DHT22;50101;49.438;11.098;2023-11-22T04:30:13;18.90;60.80
38237;DHT22;50101;49.438;11.098;2023-11-22T04:32:41;18.90;60.70
38237;DHT22;50101;49.438;11.098;2023-11-22T04:35:11;18.90;60.80
38237;DHT22;50101;49.438;11.098;2023-11-22T04:37:38;18.90;60.70
38237;DHT22;50101;49.438;11.098;2023-11-22T04:40:05;18.90;60.80
38237;DHT22;50101;49.438;11.098;2023-11-22T04:42:36;18.90;60.80
38237;DHT22;50101;49.438;11.098;2023-11-22T04:45:04;18.90;60.80
38237;DHT22;50101;49.438;11.098;2023-11-22T04:47:30;18.90;60.80
38237;DHT22;50101;49.438;11.098;2023-11-22T04:49:57;18.90;60.80
38237;DHT22;50101;49.438;11.098;2023-11-22T04:52:24;18.90;60.90
38237;DHT22;50101;49.438;11.098;2023-11-22T04:54:51;18.90;60.90
38237;DHT22;50101;49.438;11.098;2023-11-22T04:57:18;18.90;60.80
38237;DHT22;50101;49.438;11.098;2023-11-22T04:59:45;18.90;60.80
38237;DHT22;50101;49.438;11.098;2023-11-22T05:02:12;18.90;60.70
38237;DHT22;50101;49.438;11.098;2023-11-22T05:04:39;18.90;60.70
38237;DHT22;50101;49.438;11.098;2023-11-22T05:07:05;18.90;60.70
38237;DHT22;50101;49.438;11.098;2023-11-22T05:09:32;18.90;60.70
38237;DHT22;50101;49.438;11.098;2023-11-22T05:11:59;18.90;60.60
38237;DHT22;50101;49.438;11.098;2023-11-22T05:14:25;18.90;60.70
38237;DHT22;50101;49.438;11.098;2023-11-22T05:16:53;18.90;60.60
38237;DHT22;50101;49.438;11.098;2023-11-22T05:19:20;18.90;60.70
38237;DHT22;50101;49.438;11.098;2023-11-22T05:21:47;18.90;60.60
38237;DHT22;50101;49.438;11.098;2023-11-22T05:24:14;18.90;60.50
38237;DHT22;50101;49.438;11.098;2023-11-22T05:26:44;18.90;60.40
38237;DHT22;50101;49.438;11.098;2023-11-22T05:29:10;18.90;60.40
38237;DHT22;50101;49.438;11.098;2023-11-22T05:31:37;18.90;60.40
38237;DHT22;50101;49.438;11.098;2023-11-22T05:34:04;18.90;60.40
38237;DHT22;50101;49.438;11.098;2023-11-22T05:36:31;18.90;60.40
38237;DHT22;50101;49.438;11.098;2023-11-22T05:38:57;18.90;60.40
38237;DHT22;50101;49.438;11.098;2023-11-22T05:41:27;18.80;60.20
38237;DHT22;50101;49.438;11.098;2023-11-22T05:43:53;18.80;60.20
38237;DHT22;50101;49.438;11.098;2023-11-22T05:46:21;18.80;60.20
38237;DHT22;50101;49.438;11.098;2023-11-22T05:48:48;18.90;60.30
38237;DHT22;50101;49.438;11.098;2023-11-22T05:51:18;18.90;60.30
38237;DHT22;50101;49.438;11.098;2023-11-22T05:53:46;18.90;60.40
38237;DHT22;50101;49.438;11.098;2023-11-22T05:56:13;18.90;60.40
38237;DHT22;50101;49.438;11.098;2023-11-22T05:58:39;18.90;60.40
38237;DHT22;50101;49.438;11.098;2023-11-22T06:01:07;18.90;60.40
38237;DHT22;50101;49.438;11.098;2023-11-22T06:03:36;18.90;60.30
38237;DHT22;50101;49.438;11.098;2023-11-22T06:06:06;18.90;60.30
38237;DHT22;50101;49.438;11.098;2023-11-22T06:08:33;18.90;60.30
38237;DHT22;50101;49.438;11.098;2023-11-22T06:11:00;18.90;60.30
38237;DHT22;50101;49.438;11.098;2023-11-22T06:13:27;18.90;60.30
38237;DHT22;50101;49.438;11.098;2023-11-22T06:15:54;18.90;60.30
38237;DHT22;50101;49.438;11.098;2023-11-22T06:18:21;19.00;60.30
38237;DHT22;50101;49.438;11.098;2023-11-22T06:20:47;19.00;60.30
38237;DHT22;50101;49.438;11.098;2023-11-22T06:23:14;19.00;60.30
38237;DHT22;50101;49.438;11.098;2023-11-22T06:25:41;18.90;60.20
38237;DHT22;50101;49.438;11.098;2023-11-22T06:28:08;19.00;60.30
38237;DHT22;50101;49.438;11.098;2023-11-22T06:30:35;19.00;60.30
38237;DHT22;50101;49.438;11.098;2023-11-22T06:33:01;19.00;60.20
38237;DHT22;50101;49.438;11.098;2023-11-22T06:35:28;19.00;60.30
38237;DHT22;50101;49.438;11.098;2023-11-22T06:37:55;19.00;60.30
38237;DHT22;50101;49.438;11.098;2023-11-22T06:40:22;19.00;60.30
38237;DHT22;50101;49.438;11.098;2023-11-22T06:42:49;19.00;60.20
38237;DHT22;50101;49.438;11.098;2023-11-22T06:45:15;19.00;60.20
38237;DHT22;50101;49.438;11.098;2023-11-22T06:47:43;19.10;60.30
38237;DHT22;50101;49.438;11.098;2023-11-22T06:50:11;19.10;60.30
38237;DHT22;50101;49.438;11.098;2023-11-22T06:52:39;19.00;60.20
38237;DHT22;50101;49.438;11.098;2023-11-22T06:55:08;19.10;60.20
38237;DHT22;50101;49.438;11.098;2023-11-22T06:57:35;19.10;60.10
38237;DHT22;50101;49.438;11.098;2023-11-22T07:00:06;19.10;60.20
38237;DHT22;50101;49.438;11.098;2023-11-22T07:02:36;19.10;60.10
38237;DHT22;50101;49.438;11.098;2023-11-22T07:05:04;19.20;60.20
38237;DHT22;50101;49.438;11.098;2023-11-22T07:07:36;19.10;60.00
38237;DHT22;50101;49.438;11.098;2023-11-22T07:10:03;19.20;60.20
38237;DHT22;50101;49.438;11.098;2023-11-22T07:12:35;19.20;60.10
38237;DHT22;50101;49.438;11.098;2023-11-22T07:15:02;19.20;60.10
38237;DHT22;50101;49.438;11.098;2023-11-22T07:17:29;19.20;60.20
38237;DHT22;50101;49.438;11.098;2023-11-22T07:19:56;19.20;60.10
38237;DHT22;50101;49.438;11.098;2023-11-22T07:22:23;19.20;60.10
38237;DHT22;50101;49.438;11.098;2023-11-22T07:24:50;19.20;60.10
38237;DHT22;50101;49.438;11.098;2023-11-22T07:27:26;19.20;60.10
38237;DHT22;50101;49.438;11.098;2023-11-22T07:29:53;19.20;60.10
38237;DHT22;50101;49.438;11.098;2023-11-22T07:32:20;19.30;60.10
38237;DHT22;50101;49.438;11.098;2023-11-22T07:34:47;19.20;59.80
38237;DHT22;50101;49.438;11.098;2023-11-22T07:37:14;19.20;59.80
38237;DHT22;50101;49.438;11.098;2023-11-22T07:39:41;19.30;59.80
38237;DHT22;50101;49.438;11.098;2023-11-22T07:42:10;19.30;59.70
38237;DHT22;50101;49.438;11.098;2023-11-22T07:44:37;19.30;59.80
38237;DHT22;50101;49.438;11.098;2023-11-22T07:47:05;19.30;59.80
38237;DHT22;50101;49.438;11.098;2023-11-22T07:49:35;19.30;59.80
38237;DHT22;50101;49.438;11.098;2023-11-22T07:52:05;19.30;59.20
38237;DHT22;50101;49.438;11.098;2023-11-22T07:54:33;19.30;59.60
38237;DHT22;50101;49.438;11.098;2023-11-22T07:57:01;19.30;59.70
38237;DHT22;50101;49.438;11.098;2023-11-22T07:59:28;19.40;59.80
38237;DHT22;50101;49.438;11.098;2023-11-22T08:01:55;19.40;59.80
38237;DHT22;50101;49.438;11.098;2023-11-22T08:04:23;19.40;59.70
38237;DHT22;50101;49.438;11.098;2023-11-22T08:06:51;19.40;60.40
38237;DHT22;50101;49.438;11.098;2023-11-22T08:09:18;19.40;59.70
38237;DHT22;50101;49.438;11.098;2023-11-22T08:11:46;19.50;59.70
38237;DHT22;50101;49.438;11.098;2023-11-22T08:14:13;19.50;59.50
38237;DHT22;50101;49.438;11.098;2023-11-22T08:16:40;19.50;59.50
38237;DHT22;50101;49.438;11.098;2023-11-22T08:19:09;19.50;59.40
38237;DHT22;50101;49.438;11.098;2023-11-22T08:21:36;19.50;59.60
38237;DHT22;50101;49.438;11.098;2023-11-22T08:24:03;19.50;59.50
38237;DHT22;50101;49.438;11.098;2023-11-22T08:26:29;19.50;59.40
38237;DHT22;50101;49.438;11.098;2023-11-22T08:28:56;19.60;59.40
38237;DHT22;50101;49.438;11.098;2023-11-22T08:31:23;19.60;58.90
38237;DHT22;50101;49.438;11.098;2023-11-22T08:33:50;19.60;59.40
38237;DHT22;50101;49.438;11.098;2023-11-22T08:36:16;19.60;59.40
38237;DHT22;50101;49.438;11.098;2023-11-22T08:38:43;19.60;59.30
38237;DHT22;50101;49.438;11.098;2023-11-22T08:41:11;19.60;58.90
38237;DHT22;50101;49.438;11.098;2023-11-22T08:43:40;19.60;59.30
38237;DHT22;50101;49.438;11.098;2023-11-22T08:46:07;19.50;59.90
38237;DHT22;50101;49.438;11.098;2023-11-22T08:48:41;19.60;59.20
38237;DHT22;50101;49.438;11.098;2023-11-22T08:51:09;19.60;59.20
38237;DHT22;50101;49.438;11.098;2023-11-22T08:53:37;19.60;59.30
38237;DHT22;50101;49.438;11.098;2023-11-22T08:56:05;19.60;59.20
38237;DHT22;50101;49.438;11.098;2023-11-22T08:58:35;19.60;58.80
38237;DHT22;50101;49.438;11.098;2023-11-22T09:01:01;19.60;58.90
38237;DHT22;50101;49.438;11.098;2023-11-22T09:03:30;19.60;58.70
38237;DHT22;50101;49.438;11.098;2023-11-22T09:05:58;19.60;58.70
38237;DHT22;50101;49.438;11.098;2023-11-22T09:08:24;19.60;58.70
38237;DHT22;50101;49.438;11.098;2023-11-22T09:10:55;19.60;58.10
38237;DHT22;50101;49.438;11.098;2023-11-22T09:13:22;19.60;58.70
38237;DHT22;50101;49.438;11.098;2023-11-22T09:15:49;19.60;58.70
38237;DHT22;50101;49.438;11.098;2023-11-22T09:18:16;19.60;58.70
38237;DHT22;50101;49.438;11.098;2023-11-22T09:20:43;19.70;58.70
38237;DHT22;50101;49.438;11.098;2023-11-22T09:23:14;19.70;58.70
38237;DHT22;50101;49.438;11.098;2023-11-22T09:25:42;19.70;58.70
38237;DHT22;50101;49.438;11.098;2023-11-22T09:28:08;19.70;58.70
38237;DHT22;50101;49.438;11.098;2023-11-22T09:30:36;19.70;58.70
38237;DHT22;50101;49.438;11.098;2023-11-22T09:35:34;19.60;58.70
38237;DHT22;50101;49.438;11.098;2023-11-22T09:38:03;19.70;58.70
38237;DHT22;50101;49.438;11.098;2023-11-22T09:40:30;19.60;58.80
38237;DHT22;50101;49.438;11.098;2023-11-22T09:42:59;19.60;58.70
38237;DHT22;50101;49.438;11.098;2023-11-22T09:45:29;19.60;58.70
38237;DHT22;50101;49.438;11.098;2023-11-22T09:47:56;19.70;58.70
38237;DHT22;50101;49.438;11.098;2023-11-22T09:53:02;19.60;58.70
38237;DHT22;50101;49.438;11.098;2023-11-22T09:55:32;19.60;58.60
38237;DHT22;50101;49.438;11.098;2023-11-22T09:58:01;19.60;58.70
38237;DHT22;50101;49.438;11.098;2023-11-22T10:00:28;19.60;58.80
38237;DHT22;50101;49.438;11.098;2023-11-22T10:02:57;19.60;58.80
38237;DHT22;50101;49.438;11.098;2023-11-22T10:05:25;19.60;58.70
38237;DHT22;50101;49.438;11.098;2023-11-22T10:07:55;19.60;59.30
38237;DHT22;50101;49.438;11.098;2023-11-22T10:10:22;19.60;58.50
38237;DHT22;50101;49.438;11.098;2023-11-22T10:12:49;19.60;58.90
38237;DHT22;50101;49.438;11.098;2023-11-22T10:15:17;19.60;59.00
38237;DHT22;50101;49.438;11.098;2023-11-22T10:17:56;19.60;58.90
38237;DHT22;50101;49.438;11.098;2023-11-22T10:20:24;19.60;58.80
38237;DHT22;50101;49.438;11.098;2023-11-22T10:22:53;19.60;58.90
38237;DHT22;50101;49.438;11.098;2023-11-22T10:25:20;19.60;59.10
38237;DHT22;50101;49.438;11.098;2023-11-22T10:27:49;19.50;59.00
38237;DHT22;50101;49.438;11.098;2023-11-22T10:30:18;19.50;58.50
38237;DHT22;50101;49.438;11.098;2023-11-22T10:32:45;19.60;59.00
38237;DHT22;50101;49.438;11.098;2023-11-22T10:35:13;19.50;58.70
38237;DHT22;50101;49.438;11.098;2023-11-22T10:37:42;19.60;59.00
38237;DHT22;50101;49.438;11.098;2023-11-22T10:40:13;19.60;58.80
38237;DHT22;50101;49.438;11.098;2023-11-22T10:42:43;19.60;58.80
38237;DHT22;50101;49.438;11.098;2023-11-22T10:45:13;19.60;58.90
38237;DHT22;50101;49.438;11.098;2023-11-22T10:47:43;19.50;59.00
38237;DHT22;50101;49.438;11.098;2023-11-22T10:50:09;19.60;58.30
38237;DHT22;50101;49.438;11.098;2023-11-22T10:52:41;19.60;58.70
38237;DHT22;50101;49.438;11.098;2023-11-22T10:55:11;19.50;58.80
38237;DHT22;50101;49.438;11.098;2023-11-22T10:57:45;19.50;58.80
38237;DHT22;50101;49.438;11.098;2023-11-22T11:00:19;19.50;59.30
38237;DHT22;50101;49.438;11.098;2023-11-22T11:02:53;19.50;58.10
38237;DHT22;50101;49.438;11.098;2023-11-22T11:05:21;19.60;58.70
38237;DHT22;50101;49.438;11.098;2023-11-22T11:08:17;19.60;58.70
38237;DHT22;50101;49.438;11.098;2023-11-22T11:10:47;19.60;58.60
38237;DHT22;50101;49.438;11.098;2023-11-22T11:13:15;19.60;58.70
38237;DHT22;50101;49.438;11.098;2023-11-22T11:15:43;19.60;58.70
38237;DHT22;50101;49.438;11.098;2023-11-22T11:18:12;19.50;58.20
38237;DHT22;50101;49.438;11.098;2023-11-22T11:20:49;19.50;57.50
38237;DHT22;50101;49.438;11.098;2023-11-22T11:23:21;19.50;58.10
38237;DHT22;50101;49.438;11.098;2023-11-22T11:25:55;19.50;58.10
38237;DHT22;50101;49.438;11.098;2023-11-22T11:28:23;19.50;58.20
38237;DHT22;50101;49.438;11.098;2023-11-22T11:30:54;19.50;58.20
38237;DHT22;50101;49.438;11.098;2023-11-22T11:33:34;19.50;58.30
38237;DHT22;50101;49.438;11.098;2023-11-22T11:36:03;19.50;58.30
38237;DHT22;50101;49.438;11.098;2023-11-22T11:38:32;19.50;58.20
38237;DHT22;50101;49.438;11.098;2023-11-22T11:41:08;19.50;58.30
38237;DHT22;50101;49.438;11.098;2023-11-22T11:43:59;19.50;58.30
38237;DHT22;50101;49.438;11.098;2023-11-22T11:46:29;19.50;58.30
38237;DHT22;50101;49.438;11.098;2023-11-22T11:48:56;19.50;58.30
38237;DHT22;50101;49.438;11.098;2023-11-22T11:51:25;19.50;58.30
38237;DHT22;50101;49.438;11.098;2023-11-22T11:53:52;19.60;58.40
38237;DHT22;50101;49.438;11.098;2023-11-22T11:56:20;19.50;58.30
38237;DHT22;50101;49.438;11.098;2023-11-22T11:58:48;19.50;58.30
38237;DHT22;50101;49.438;11.098;2023-11-22T12:01:17;19.50;58.40
38237;DHT22;50101;49.438;11.098;2023-11-22T12:03:44;19.50;58.40
38237;DHT22;50101;49.438;11.098;2023-11-22T12:06:15;19.50;58.40
38237;DHT22;50101;49.438;11.098;2023-11-22T12:08:42;19.50;58.40
38237;DHT22;50101;49.438;11.098;2023-11-22T12:11:09;19.50;58.40
38237;DHT22;50101;49.438;11.098;2023-11-22T12:13:37;19.50;58.40
38237;DHT22;50101;49.438;11.098;2023-11-22T12:16:05;19.50;58.40
38237;DHT22;50101;49.438;11.098;2023-11-22T12:18:47;19.50;58.50
38237;DHT22;50101;49.438;11.098;2023-11-22T12:21:18;19.50;58.00
38237;DHT22;50101;49.438;11.098;2023-11-22T12:23:46;19.50;58.40
38237;DHT22;50101;49.438;11.098;2023-11-22T12:26:16;19.50;58.50
38237;DHT22;50101;49.438;11.098;2023-11-22T12:28:48;19.50;58.50
38237;DHT22;50101;49.438;11.098;2023-11-22T12:31:30;19.50;58.50
38237;DHT22;50101;49.438;11.098;2023-11-22T12:34:02;19.50;58.50
38237;DHT22;50101;49.438;11.098;2023-11-22T12:36:29;19.50;58.50
38237;DHT22;50101;49.438;11.098;2023-11-22T12:38:56;19.50;58.50
38237;DHT22;50101;49.438;11.098;2023-11-22T12:41:26;19.50;58.10
38237;DHT22;50101;49.438;11.098;2023-11-22T12:44:03;19.50;58.60
38237;DHT22;50101;49.438;11.098;2023-11-22T12:46:53;19.50;58.60
38237;DHT22;50101;49.438;11.098;2023-11-22T12:49:28;19.50;58.60
38237;DHT22;50101;49.438;11.098;2023-11-22T12:51:56;19.50;58.10
38237;DHT22;50101;49.438;11.098;2023-11-22T12:54:25;19.50;58.60
38237;DHT22;50101;49.438;11.098;2023-11-22T12:56:53;19.50;58.50
38237;DHT22;50101;49.438;11.098;2023-11-22T12:59:26;19.50;58.50
38237;DHT22;50101;49.438;11.098;2023-11-22T13:01:54;19.50;58.50
38237;DHT22;50101;49.438;11.098;2023-11-22T13:04:22;19.50;58.60
38237;DHT22;50101;49.438;11.098;2023-11-22T13:06:49;19.50;58.60
38237;DHT22;50101;49.438;11.098;2023-11-22T13:09:16;19.40;58.50
38237;DHT22;50101;49.438;11.098;2023-11-22T13:11:43;19.40;58.50
38237;DHT22;50101;49.438;11.098;2023-11-22T13:14:10;19.40;58.50
38237;DHT22;50101;49.438;11.098;2023-11-22T13:16:41;19.50;58.50
38237;DHT22;50101;49.438;11.098;2023-11-22T13:19:08;19.50;58.50
38237;DHT22;50101;49.438;11.098;2023-11-22T13:21:35;19.50;58.50
38237;DHT22;50101;49.438;11.098;2023-11-22T13:24:02;19.40;58.50
38237;DHT22;50101;49.438;11.098;2023-11-22T13:26:31;19.50;58.60
38237;DHT22;50101;49.438;11.098;2023-11-22T13:28:58;19.40;58.50
38237;DHT22;50101;49.438;11.098;2023-11-22T13:31:25;19.40;58.00
38237;DHT22;50101;49.438;11.098;2023-11-22T13:33:52;19.40;58.60
38237;DHT22;50101;49.438;11.098;2023-11-22T13:36:19;19.40;58.60
38237;DHT22;50101;49.438;11.098;2023-11-22T13:38:46;19.40;58.60
38237;DHT22;50101;49.438;11.098;2023-11-22T13:41:12;19.50;58.80
38237;DHT22;50101;49.438;11.098;2023-11-22T13:43:39;19.50;58.70
38237;DHT22;50101;49.438;11.098;2023-11-22T13:46:06;19.40;58.70
38237;DHT22;50101;49.438;11.098;2023-11-22T13:48:36;19.40;58.80
38237;DHT22;50101;49.438;11.098;2023-11-22T13:51:03;19.50;58.80
38237;DHT22;50101;49.438;11.098;2023-11-22T13:53:33;19.40;58.90
38237;DHT22;50101;49.438;11.098;2023-11-22T13:56:03;19.50;59.00
38237;DHT22;50101;49.438;11.098;2023-11-22T13:58:35;19.40;59.00
38237;DHT22;50101;49.438;11.098;2023-11-22T14:01:02;19.40;58.50
38237;DHT22;50101;49.438;11.098;2023-11-22T14:03:32;19.40;59.10
38237;DHT22;50101;49.438;11.098;2023-11-22T14:06:00;19.40;59.10
38237;DHT22;50101;49.438;11.098;2023-11-22T14:08:27;19.40;59.10
38237;DHT22;50101;49.438;11.098;2023-11-22T14:10:54;19.40;59.20
38237;DHT22;50101;49.438;11.098;2023-11-22T14:13:21;19.40;59.20
38237;DHT22;50101;49.438;11.098;2023-11-22T14:15:48;19.40;59.20
38237;DHT22;50101;49.438;11.098;2023-11-22T14:18:15;19.40;59.10
38237;DHT22;50101;49.438;11.098;2023-11-22T14:20:44;19.40;58.70
38237;DHT22;50101;49.438;11.098;2023-11-22T14:23:10;19.40;59.20
38237;DHT22;50101;49.438;11.098;2023-11-22T14:25:37;19.40;59.30
38237;DHT22;50101;49.438;11.098;2023-11-22T14:28:07;19.40;59.20
38237;DHT22;50101;49.438;11.098;2023-11-22T14:30:35;19.40;59.20
38237;DHT22;50101;49.438;11.098;2023-11-22T14:33:03;19.40;59.30
38237;DHT22;50101;49.438;11.098;2023-11-22T14:35:34;19.40;59.30
38237;DHT22;50101;49.438;11.098;2023-11-22T14:38:02;19.40;59.30
38237;DHT22;50101;49.438;11.098;2023-11-22T14:40:30;19.40;58.80
38237;DHT22;50101;49.438;11.098;2023-11-22T14:42:57;19.40;59.30
38237;DHT22;50101;49.438;11.098;2023-11-22T14:45:24;19.40;59.30
38237;DHT22;50101;49.438;11.098;2023-11-22T14:47:53;19.40;59.30
38237;DHT22;50101;49.438;11.098;2023-11-22T14:50:20;19.40;58.90
38237;DHT22;50101;49.438;11.098;2023-11-22T14:52:48;19.40;59.30
38237;DHT22;50101;49.438;11.098;2023-11-22T14:55:17;19.40;59.40
38237;DHT22;50101;49.438;11.098;2023-11-22T14:57:45;19.40;59.40
38237;DHT22;50101;49.438;11.098;2023-11-22T15:00:12;19.40;58.90
38237;DHT22;50101;49.438;11.098;2023-11-22T15:02:41;19.40;58.90
38237;DHT22;50101;49.438;11.098;2023-11-22T15:05:14;19.40;60.00
38237;DHT22;50101;49.438;11.098;2023-11-22T15:07:41;19.40;59.40
38237;DHT22;50101;49.438;11.098;2023-11-22T15:10:10;19.40;58.90
38237;DHT22;50101;49.438;11.098;2023-11-22T15:12:38;19.30;59.30
38237;DHT22;50101;49.438;11.098;2023-11-22T15:15:07;19.40;59.40
38237;DHT22;50101;49.438;11.098;2023-11-22T15:17:34;19.40;59.40
38237;DHT22;50101;49.438;11.098;2023-11-22T15:20:02;19.30;59.30
38237;DHT22;50101;49.438;11.098;2023-11-22T15:22:30;19.30;59.30
38237;DHT22;50101;49.438;11.098;2023-11-22T15:24:57;19.40;59.40
38237;DHT22;50101;49.438;11.098;2023-11-22T15:27:24;19.40;59.40